sensor_id;sensor_type;location;lat;lon;timestamp;pressure;altitude;pressure_sealevel;temperature;humidity
52957;BME280;38819;42.692;23.342;2022-08-05T00:02:07;95393.78;;;22.09;60.61
52957;BME280;38819;42.692;23.342;2022-08-05T00:04:33;95400.78;;;22.06;60.63
52957;BME280;38819;42.692;23.342;2022-08-05T00:06:58;95395.72;;;22.08;60.59
52957;BME280;38819;42.692;23.342;2022-08-05T00:09:24;95394.50;;;22.06;58.74
52957;BME280;38819;42.692;23.342;2022-08-05T00:11:49;95404.78;;;22.09;60.32
52957;BME280;38819;42.692;23.342;2022-08-05T00:14:15;95398.81;;;22.07;60.17
52957;BME280;38819;42.692;23.342;2022-08-05T00:16:41;95396.53;;;22.09;59.95
52957;BME280;38819;42.692;23.342;2022-08-05T00:19:06;95392.09;;;22.04;60.15
52957;BME280;38819;42.692;23.342;2022-08-05T00:21:32;95392.53;;;22.06;59.87
52957;BME280;38819;42.692;23.342;2022-08-05T00:23:58;95391.69;;;22.02;60.60
52957;BME280;38819;42.692;23.342;2022-08-05T00:26:24;95388.84;;;21.98;60.89
52957;BME280;38819;42.692;23.342;2022-08-05T00:28:50;95386.19;;;22.02;60.69
52957;BME280;38819;42.692;23.342;2022-08-05T00:31:15;95389.38;;;22.04;60.47
52957;BME280;38819;42.692;23.342;2022-08-05T00:33:41;95375.53;;;22.00;60.60
52957;BME280;38819;42.692;23.342;2022-08-05T00:36:06;95379.50;;;22.03;59.77
52957;BME280;38819;42.692;23.342;2022-08-05T00:38:32;95385.38;;;22.01;59.51
52957;BME280;38819;42.692;23.342;2022-08-05T00:40:57;95382.00;;;21.89;59.43
52957;BME280;38819;42.692;23.342;2022-08-05T00:43:23;95378.41;;;21.88;59.82
52957;BME280;38819;42.692;23.342;2022-08-05T00:45:49;95378.28;;;21.81;58.35
52957;BME280;38819;42.692;23.342;2022-08-05T00:48:21;95386.03;;;21.75;57.03
52957;BME280;38819;42.692;23.342;2022-08-05T00:50:48;95385.56;;;21.73;56.69
52957;BME280;38819;42.692;23.342;2022-08-05T00:53:19;95386.38;;;21.74;56.48
52957;BME280;38819;42.692;23.342;2022-08-05T00:55:45;95383.78;;;21.81;57.38
52957;BME280;38819;42.692;23.342;2022-08-05T00:58:12;95375.03;;;21.75;58.00
52957;BME280;38819;42.692;23.342;2022-08-05T01:00:38;95385.28;;;21.78;57.77
52957;BME280;38819;42.692;23.342;2022-08-05T01:03:04;95383.28;;;21.75;56.22
52957;BME280;38819;42.692;23.342;2022-08-05T01:05:29;95377.25;;;21.70;56.56
52957;BME280;38819;42.692;23.342;2022-08-05T01:07:55;95381.19;;;21.69;56.70
52957;BME280;38819;42.692;23.342;2022-08-05T01:10:26;95380.66;;;21.63;57.94
52957;BME280;38819;42.692;23.342;2022-08-05T01:12:54;95374.94;;;21.52;58.23
52957;BME280;38819;42.692;23.342;2022-08-05T01:15:26;95378.81;;;21.51;58.25
52957;BME280;38819;42.692;23.342;2022-08-05T01:17:56;95386.53;;;21.45;57.67
52957;BME280;38819;42.692;23.342;2022-08-05T01:20:33;95380.72;;;21.47;58.32
52957;BME280;38819;42.692;23.342;2022-08-05T01:28:39;95392.38;;;21.44;57.04
52957;BME280;38819;42.692;23.342;2022-08-05T01:31:11;95397.44;;;21.42;57.87
52957;BME280;38819;42.692;23.342;2022-08-05T01:34:08;95393.22;;;21.28;58.18
52957;BME280;38819;42.692;23.342;2022-08-05T01:36:39;95385.69;;;21.25;58.40
52957;BME280;38819;42.692;23.342;2022-08-05T01:39:06;95398.16;;;21.23;58.93
52957;BME280;38819;42.692;23.342;2022-08-05T01:41:33;95392.44;;;21.12;58.74
52957;BME280;38819;42.692;23.342;2022-08-05T01:44:00;95399.44;;;21.09;59.09
52957;BME280;38819;42.692;23.342;2022-08-05T01:46:26;95397.38;;;21.06;58.98
52957;BME280;38819;42.692;23.342;2022-08-05T01:48:54;95392.63;;;21.03;59.50
52957;BME280;38819;42.692;23.342;2022-08-05T01:51:21;95392.78;;;21.10;58.92
52957;BME280;38819;42.692;23.342;2022-08-05T01:53:50;95396.31;;;21.11;59.44
52957;BME280;38819;42.692;23.342;2022-08-05T01:56:17;95403.97;;;21.02;59.43
52957;BME280;38819;42.692;23.342;2022-08-05T01:58:43;95399.63;;;21.01;58.85
52957;BME280;38819;42.692;23.342;2022-08-05T02:01:12;95392.72;;;21.07;59.26
52957;BME280;38819;42.692;23.342;2022-08-05T02:03:43;95405.03;;;20.97;60.36
52957;BME280;38819;42.692;23.342;2022-08-05T02:06:10;95392.16;;;21.01;59.43
52957;BME280;38819;42.692;23.342;2022-08-05T02:08:36;95398.38;;;20.98;58.29
52957;BME280;38819;42.692;23.342;2022-08-05T02:11:06;95396.16;;;21.04;58.30
52957;BME280;38819;42.692;23.342;2022-08-05T02:13:59;95395.38;;;21.03;58.01
52957;BME280;38819;42.692;23.342;2022-08-05T02:19:23;95392.16;;;21.01;57.65
52957;BME280;38819;42.692;23.342;2022-08-05T02:24:40;95397.13;;;20.96;59.63
52957;BME280;38819;42.692;23.342;2022-08-05T02:27:09;95395.53;;;20.95;59.87
52957;BME280;38819;42.692;23.342;2022-08-05T02:29:35;95384.75;;;20.86;60.13
52957;BME280;38819;42.692;23.342;2022-08-05T02:32:02;95387.03;;;20.84;60.51
52957;BME280;38819;42.692;23.342;2022-08-05T02:34:30;95395.28;;;20.84;60.84
52957;BME280;38819;42.692;23.342;2022-08-05T02:37:02;95387.47;;;20.86;60.61
52957;BME280;38819;42.692;23.342;2022-08-05T02:39:30;95381.13;;;20.82;60.79
52957;BME280;38819;42.692;23.342;2022-08-05T02:42:01;95389.28;;;20.78;60.93
52957;BME280;38819;42.692;23.342;2022-08-05T02:44:29;95390.22;;;20.86;60.52
52957;BME280;38819;42.692;23.342;2022-08-05T02:46:55;95389.63;;;20.77;60.48
52957;BME280;38819;42.692;23.342;2022-08-05T02:49:22;95395.38;;;20.71;60.64
52957;BME280;38819;42.692;23.342;2022-08-05T02:51:49;95389.00;;;20.67;60.37
52957;BME280;38819;42.692;23.342;2022-08-05T02:54:16;95391.81;;;20.71;60.24
52957;BME280;38819;42.692;23.342;2022-08-05T02:56:42;95393.78;;;20.70;60.34
52957;BME280;38819;42.692;23.342;2022-08-05T02:59:09;95392.31;;;20.61;60.41
52957;BME280;38819;42.692;23.342;2022-08-05T03:01:36;95399.94;;;20.51;60.70
52957;BME280;38819;42.692;23.342;2022-08-05T03:04:06;95389.41;;;20.53;59.97
52957;BME280;38819;42.692;23.342;2022-08-05T03:06:34;95396.72;;;20.49;59.39
52957;BME280;38819;42.692;23.342;2022-08-05T03:09:00;95391.22;;;20.49;58.85
52957;BME280;38819;42.692;23.342;2022-08-05T03:11:26;95391.06;;;20.42;58.98
52957;BME280;38819;42.692;23.342;2022-08-05T03:13:52;95393.88;;;20.46;59.65
52957;BME280;38819;42.692;23.342;2022-08-05T03:16:19;95396.28;;;20.47;59.06
52957;BME280;38819;42.692;23.342;2022-08-05T03:18:45;95396.28;;;20.47;58.74
52957;BME280;38819;42.692;23.342;2022-08-05T03:21:10;95405.72;;;20.34;59.12
52957;BME280;38819;42.692;23.342;2022-08-05T03:23:38;95403.94;;;20.26;58.94
52957;BME280;38819;42.692;23.342;2022-08-05T03:26:05;95391.56;;;20.32;58.71
52957;BME280;38819;42.692;23.342;2022-08-05T03:28:31;95396.16;;;20.28;59.26
52957;BME280;38819;42.692;23.342;2022-08-05T03:30:58;95398.16;;;20.15;59.03
52957;BME280;38819;42.692;23.342;2022-08-05T03:33:26;95399.06;;;20.19;59.27
52957;BME280;38819;42.692;23.342;2022-08-05T03:35:51;95398.59;;;20.17;59.46
52957;BME280;38819;42.692;23.342;2022-08-05T03:38:17;95402.59;;;20.20;58.66
52957;BME280;38819;42.692;23.342;2022-08-05T03:40:45;95397.47;;;20.18;58.50
52957;BME280;38819;42.692;23.342;2022-08-05T03:43:11;95394.00;;;20.21;58.82
52957;BME280;38819;42.692;23.342;2022-08-05T03:45:36;95403.31;;;20.16;58.62
52957;BME280;38819;42.692;23.342;2022-08-05T03:48:02;95405.56;;;20.14;58.77
52957;BME280;38819;42.692;23.342;2022-08-05T03:50:43;95405.47;;;20.11;58.40
52957;BME280;38819;42.692;23.342;2022-08-05T03:53:19;95406.41;;;20.15;58.66
52957;BME280;38819;42.692;23.342;2022-08-05T03:55:51;95404.38;;;20.28;58.06
52957;BME280;38819;42.692;23.342;2022-08-05T03:58:18;95408.31;;;20.14;58.57
52957;BME280;38819;42.692;23.342;2022-08-05T04:00:48;95397.84;;;20.04;58.55
52957;BME280;38819;42.692;23.342;2022-08-05T04:03:14;95390.31;;;20.01;58.60
52957;BME280;38819;42.692;23.342;2022-08-05T04:05:42;95408.03;;;20.04;58.41
52957;BME280;38819;42.692;23.342;2022-08-05T04:08:08;95399.72;;;20.00;58.43
52957;BME280;38819;42.692;23.342;2022-08-05T04:10:35;95398.53;;;20.01;58.33
52957;BME280;38819;42.692;23.342;2022-08-05T04:13:01;95403.09;;;20.09;58.64
52957;BME280;38819;42.692;23.342;2022-08-05T04:15:27;95402.75;;;20.11;58.45
52957;BME280;38819;42.692;23.342;2022-08-05T04:17:53;95403.19;;;20.13;58.34
52957;BME280;38819;42.692;23.342;2022-08-05T04:20:21;95409.50;;;20.01;58.82
52957;BME280;38819;42.692;23.342;2022-08-05T04:22:46;95399.56;;;20.09;58.61
52957;BME280;38819;42.692;23.342;2022-08-05T04:25:12;95398.06;;;20.11;58.57
52957;BME280;38819;42.692;23.342;2022-08-05T04:27:37;95394.97;;;20.13;58.65
52957;BME280;38819;42.692;23.342;2022-08-05T04:30:04;95394.47;;;20.23;57.72
52957;BME280;38819;42.692;23.342;2022-08-05T04:32:30;95388.09;;;20.19;58.26
52957;BME280;38819;42.692;23.342;2022-08-05T04:34:55;95398.25;;;20.18;58.28
52957;BME280;38819;42.692;23.342;2022-08-05T04:37:20;95395.63;;;20.22;58.26
52957;BME280;38819;42.692;23.342;2022-08-05T04:39:46;95393.78;;;20.42;57.82
52957;BME280;38819;42.692;23.342;2022-08-05T04:42:12;95393.09;;;20.45;57.87
52957;BME280;38819;42.692;23.342;2022-08-05T04:44:37;95393.72;;;20.54;57.63
52957;BME280;38819;42.692;23.342;2022-08-05T04:47:03;95396.34;;;20.63;57.70
52957;BME280;38819;42.692;23.342;2022-08-05T04:49:28;95401.66;;;20.72;57.44
52957;BME280;38819;42.692;23.342;2022-08-05T04:51:54;95396.34;;;20.63;57.54
52957;BME280;38819;42.692;23.342;2022-08-05T04:54:19;95399.97;;;20.67;57.35
52957;BME280;38819;42.692;23.342;2022-08-05T04:56:45;95398.00;;;20.68;57.40
52957;BME280;38819;42.692;23.342;2022-08-05T04:59:12;95401.31;;;20.73;57.38
52957;BME280;38819;42.692;23.342;2022-08-05T05:01:38;95393.94;;;20.78;56.89
52957;BME280;38819;42.692;23.342;2022-08-05T05:04:04;95391.41;;;20.85;56.92
52957;BME280;38819;42.692;23.342;2022-08-05T05:06:29;95399.53;;;20.97;56.78
52957;BME280;38819;42.692;23.342;2022-08-05T05:08:54;95386.50;;;20.94;56.78
52957;BME280;38819;42.692;23.342;2022-08-05T05:11:20;95398.28;;;20.95;56.89
52957;BME280;38819;42.692;23.342;2022-08-05T05:13:46;95392.34;;;21.08;56.29
52957;BME280;38819;42.692;23.342;2022-08-05T05:16:11;95386.59;;;21.14;56.29
52957;BME280;38819;42.692;23.342;2022-08-05T05:18:37;95387.88;;;21.20;56.35
52957;BME280;38819;42.692;23.342;2022-08-05T05:21:02;95387.53;;;21.21;56.49
52957;BME280;38819;42.692;23.342;2022-08-05T05:23:28;95382.31;;;21.32;56.20
52957;BME280;38819;42.692;23.342;2022-08-05T05:25:53;95382.88;;;21.41;56.09
52957;BME280;38819;42.692;23.342;2022-08-05T05:28:19;95387.00;;;21.48;55.80
52957;BME280;38819;42.692;23.342;2022-08-05T05:30:45;95380.56;;;21.59;55.30
52957;BME280;38819;42.692;23.342;2022-08-05T05:33:11;95381.00;;;21.61;55.68
52957;BME280;38819;42.692;23.342;2022-08-05T05:35:36;95384.34;;;21.71;55.00
52957;BME280;38819;42.692;23.342;2022-08-05T05:38:02;95383.34;;;21.79;55.57
52957;BME280;38819;42.692;23.342;2022-08-05T05:40:30;95382.63;;;21.82;55.23
52957;BME280;38819;42.692;23.342;2022-08-05T05:42:56;95378.78;;;21.87;55.26
52957;BME280;38819;42.692;23.342;2022-08-05T05:45:22;95382.72;;;21.86;55.17
52957;BME280;38819;42.692;23.342;2022-08-05T05:47:47;95385.88;;;21.88;54.82
52957;BME280;38819;42.692;23.342;2022-08-05T05:50:15;95384.56;;;22.01;55.05
52957;BME280;38819;42.692;23.342;2022-08-05T05:52:41;95385.88;;;22.07;54.33
52957;BME280;38819;42.692;23.342;2022-08-05T05:55:09;95380.47;;;22.11;54.51
52957;BME280;38819;42.692;23.342;2022-08-05T05:57:38;95388.66;;;22.07;54.45
52957;BME280;38819;42.692;23.342;2022-08-05T06:00:06;95386.81;;;22.15;54.44
52957;BME280;38819;42.692;23.342;2022-08-05T06:02:32;95388.59;;;22.27;54.18
52957;BME280;38819;42.692;23.342;2022-08-05T06:04:58;95388.13;;;22.21;54.52
52957;BME280;38819;42.692;23.342;2022-08-05T06:07:23;95390.94;;;22.25;54.04
52957;BME280;38819;42.692;23.342;2022-08-05T06:09:48;95391.84;;;22.29;54.25
52957;BME280;38819;42.692;23.342;2022-08-05T06:12:14;95397.59;;;22.43;54.23
52957;BME280;38819;42.692;23.342;2022-08-05T06:14:39;95389.22;;;22.36;53.63
52957;BME280;38819;42.692;23.342;2022-08-05T06:17:09;95391.72;;;22.45;53.82
52957;BME280;38819;42.692;23.342;2022-08-05T06:19:35;95392.53;;;22.45;53.83
52957;BME280;38819;42.692;23.342;2022-08-05T06:22:01;95393.81;;;22.51;53.40
52957;BME280;38819;42.692;23.342;2022-08-05T06:24:27;95386.56;;;22.63;53.62
52957;BME280;38819;42.692;23.342;2022-08-05T06:26:52;95390.81;;;22.60;53.81
52957;BME280;38819;42.692;23.342;2022-08-05T06:29:19;95389.09;;;22.52;53.80
52957;BME280;38819;42.692;23.342;2022-08-05T06:31:45;95390.03;;;22.60;54.03
52957;BME280;38819;42.692;23.342;2022-08-05T06:34:10;95390.59;;;22.69;53.85
52957;BME280;38819;42.692;23.342;2022-08-05T06:36:35;95390.66;;;22.72;53.58
52957;BME280;38819;42.692;23.342;2022-08-05T06:39:01;95386.44;;;22.79;53.33
52957;BME280;38819;42.692;23.342;2022-08-05T06:41:26;95387.66;;;22.81;53.52
52957;BME280;38819;42.692;23.342;2022-08-05T06:43:52;95384.53;;;22.83;53.78
52957;BME280;38819;42.692;23.342;2022-08-05T06:46:17;95384.97;;;22.85;53.68
52957;BME280;38819;42.692;23.342;2022-08-05T06:48:43;95389.44;;;22.93;53.18
52957;BME280;38819;42.692;23.342;2022-08-05T06:51:08;95383.66;;;23.02;53.12
52957;BME280;38819;42.692;23.342;2022-08-05T06:53:33;95392.88;;;23.09;52.94
52957;BME280;38819;42.692;23.342;2022-08-05T06:56:00;95379.53;;;23.11;52.90
52957;BME280;38819;42.692;23.342;2022-08-05T06:58:27;95379.34;;;23.24;52.71
52957;BME280;38819;42.692;23.342;2022-08-05T07:00:53;95379.81;;;23.29;52.64
52957;BME280;38819;42.692;23.342;2022-08-05T07:03:18;95376.19;;;23.25;52.57
52957;BME280;38819;42.692;23.342;2022-08-05T07:05:44;95383.41;;;23.34;53.05
52957;BME280;38819;42.692;23.342;2022-08-05T07:08:10;95377.38;;;23.24;53.46
52957;BME280;38819;42.692;23.342;2022-08-05T07:10:36;95371.97;;;23.31;53.40
52957;BME280;38819;42.692;23.342;2022-08-05T07:13:01;95381.19;;;23.43;52.90
52957;BME280;38819;42.692;23.342;2022-08-05T07:15:45;95379.38;;;23.54;52.29
52957;BME280;38819;42.692;23.342;2022-08-05T07:18:29;95380.78;;;23.71;52.11
52957;BME280;38819;42.692;23.342;2022-08-05T07:20:55;95390.44;;;23.84;51.41
52957;BME280;38819;42.692;23.342;2022-08-05T07:23:20;95381.09;;;23.93;50.86
52957;BME280;38819;42.692;23.342;2022-08-05T07:25:46;95382.78;;;24.01;51.21
52957;BME280;38819;42.692;23.342;2022-08-05T07:28:12;95380.50;;;24.10;51.43
52957;BME280;38819;42.692;23.342;2022-08-05T07:30:37;95380.81;;;24.01;52.17
52957;BME280;38819;42.692;23.342;2022-08-05T07:33:04;95381.97;;;24.00;52.15
52957;BME280;38819;42.692;23.342;2022-08-05T07:35:30;95381.63;;;24.05;52.19
52957;BME280;38819;42.692;23.342;2022-08-05T07:37:55;95376.22;;;24.13;52.01
52957;BME280;38819;42.692;23.342;2022-08-05T07:40:21;95373.47;;;24.13;52.58
52957;BME280;38819;42.692;23.342;2022-08-05T07:42:47;95372.72;;;24.16;51.68
52957;BME280;38819;42.692;23.342;2022-08-05T07:45:13;95372.81;;;24.27;51.32
52957;BME280;38819;42.692;23.342;2022-08-05T07:47:40;95370.56;;;24.36;51.12
52957;BME280;38819;42.692;23.342;2022-08-05T07:50:06;95374.28;;;24.51;50.48
52957;BME280;38819;42.692;23.342;2022-08-05T07:52:37;95364.09;;;24.58;50.29
52957;BME280;38819;42.692;23.342;2022-08-05T07:55:02;95379.22;;;24.72;49.41
52957;BME280;38819;42.692;23.342;2022-08-05T07:57:28;95370.25;;;24.82;48.42
52957;BME280;38819;42.692;23.342;2022-08-05T07:59:53;95377.81;;;24.92;48.59
52957;BME280;38819;42.692;23.342;2022-08-05T08:02:26;95372.00;;;25.01;48.40
52957;BME280;38819;42.692;23.342;2022-08-05T08:04:52;95379.16;;;25.09;48.37
52957;BME280;38819;42.692;23.342;2022-08-05T08:07:17;95371.69;;;25.13;48.08
52957;BME280;38819;42.692;23.342;2022-08-05T08:09:44;95378.47;;;25.20;47.86
52957;BME280;38819;42.692;23.342;2022-08-05T08:12:10;95369.06;;;25.28;47.44
52957;BME280;38819;42.692;23.342;2022-08-05T08:14:40;95364.22;;;25.18;47.92
52957;BME280;38819;42.692;23.342;2022-08-05T08:17:06;95365.41;;;25.17;47.44
52957;BME280;38819;42.692;23.342;2022-08-05T08:19:38;95365.00;;;25.14;47.74
52957;BME280;38819;42.692;23.342;2022-08-05T08:22:05;95367.81;;;25.25;47.43
52957;BME280;38819;42.692;23.342;2022-08-05T08:24:31;95356.81;;;25.29;47.26
52957;BME280;38819;42.692;23.342;2022-08-05T08:26:56;95361.19;;;25.33;47.24
52957;BME280;38819;42.692;23.342;2022-08-05T08:29:22;95357.66;;;25.37;47.23
52957;BME280;38819;42.692;23.342;2022-08-05T08:31:48;95352.56;;;25.42;46.59
52957;BME280;38819;42.692;23.342;2022-08-05T08:34:13;95354.59;;;25.52;45.81
52957;BME280;38819;42.692;23.342;2022-08-05T08:36:39;95351.91;;;25.63;44.97
52957;BME280;38819;42.692;23.342;2022-08-05T08:39:05;95351.56;;;25.76;45.47
52957;BME280;38819;42.692;23.342;2022-08-05T08:41:32;95350.00;;;25.75;46.43
52957;BME280;38819;42.692;23.342;2022-08-05T08:43:58;95348.41;;;25.77;46.32
52957;BME280;38819;42.692;23.342;2022-08-05T08:46:30;95348.81;;;25.79;45.84
52957;BME280;38819;42.692;23.342;2022-08-05T08:48:56;95344.88;;;25.84;45.31
52957;BME280;38819;42.692;23.342;2022-08-05T08:51:23;95348.47;;;25.92;45.08
52957;BME280;38819;42.692;23.342;2022-08-05T08:53:52;95345.75;;;25.99;44.74
52957;BME280;38819;42.692;23.342;2022-08-05T08:56:18;95342.25;;;26.09;43.32
52957;BME280;38819;42.692;23.342;2022-08-05T08:58:45;95343.06;;;26.13;42.93
52957;BME280;38819;42.692;23.342;2022-08-05T09:01:12;95339.16;;;26.29;41.30
52957;BME280;38819;42.692;23.342;2022-08-05T09:03:39;95336.78;;;26.31;40.89
52957;BME280;38819;42.692;23.342;2022-08-05T09:06:05;95335.59;;;26.39;41.12
52957;BME280;38819;42.692;23.342;2022-08-05T09:08:31;95326.91;;;26.40;41.20
52957;BME280;38819;42.692;23.342;2022-08-05T09:10:57;95329.28;;;26.49;40.55
52957;BME280;38819;42.692;23.342;2022-08-05T09:13:23;95323.75;;;26.53;38.94
52957;BME280;38819;42.692;23.342;2022-08-05T09:15:49;95319.03;;;26.60;37.63
52957;BME280;38819;42.692;23.342;2022-08-05T09:18:15;95319.06;;;26.68;38.06
52957;BME280;38819;42.692;23.342;2022-08-05T09:20:40;95313.13;;;26.69;37.71
52957;BME280;38819;42.692;23.342;2022-08-05T09:25:40;95302.03;;;26.87;37.48
52957;BME280;38819;42.692;23.342;2022-08-05T09:30:50;95301.66;;;27.03;37.83
52957;BME280;38819;42.692;23.342;2022-08-05T09:33:16;95301.25;;;27.08;38.41
52957;BME280;38819;42.692;23.342;2022-08-05T09:36:01;95296.88;;;27.14;38.84
52957;BME280;38819;42.692;23.342;2022-08-05T09:38:28;95298.44;;;27.23;38.04
52957;BME280;38819;42.692;23.342;2022-08-05T09:41:01;95295.28;;;27.31;37.83
52957;BME280;38819;42.692;23.342;2022-08-05T09:43:36;95287.75;;;27.39;38.19
52957;BME280;38819;42.692;23.342;2022-08-05T09:46:03;95290.88;;;27.45;37.50
52957;BME280;38819;42.692;23.342;2022-08-05T09:48:34;95293.69;;;27.41;37.48
52957;BME280;38819;42.692;23.342;2022-08-05T09:51:05;95290.91;;;27.48;38.47
52957;BME280;38819;42.692;23.342;2022-08-05T09:53:50;95284.13;;;27.60;38.50
52957;BME280;38819;42.692;23.342;2022-08-05T09:56:29;95277.75;;;27.67;37.36
52957;BME280;38819;42.692;23.342;2022-08-05T10:01:27;95272.63;;;27.65;36.97
52957;BME280;38819;42.692;23.342;2022-08-05T10:03:58;95275.72;;;27.75;37.04
52957;BME280;38819;42.692;23.342;2022-08-05T10:06:25;95268.97;;;27.83;37.45
52957;BME280;38819;42.692;23.342;2022-08-05T10:08:52;95268.16;;;27.86;36.66
52957;BME280;38819;42.692;23.342;2022-08-05T10:11:17;95275.28;;;27.94;36.88
52957;BME280;38819;42.692;23.342;2022-08-05T10:13:43;95273.69;;;27.97;36.74
52957;BME280;38819;42.692;23.342;2022-08-05T10:16:30;95272.44;;;28.05;36.90
52957;BME280;38819;42.692;23.342;2022-08-05T10:18:56;95271.25;;;28.06;36.77
52957;BME280;38819;42.692;23.342;2022-08-05T10:21:22;95261.34;;;28.05;36.12
52957;BME280;38819;42.692;23.342;2022-08-05T10:23:47;95262.09;;;28.13;35.25
52957;BME280;38819;42.692;23.342;2022-08-05T10:26:13;95267.59;;;28.20;36.02
52957;BME280;38819;42.692;23.342;2022-08-05T10:28:39;95264.03;;;28.19;35.98
52957;BME280;38819;42.692;23.342;2022-08-05T10:31:05;95259.25;;;28.20;34.87
52957;BME280;38819;42.692;23.342;2022-08-05T10:33:32;95256.47;;;28.27;34.86
52957;BME280;38819;42.692;23.342;2022-08-05T10:35:59;95258.84;;;28.28;34.90
52957;BME280;38819;42.692;23.342;2022-08-05T10:38:28;95250.53;;;28.21;34.94
52957;BME280;38819;42.692;23.342;2022-08-05T10:46:13;95250.84;;;28.34;36.04
52957;BME280;38819;42.692;23.342;2022-08-05T10:48:43;95246.44;;;28.44;36.28
52957;BME280;38819;42.692;23.342;2022-08-05T10:51:15;95243.56;;;28.55;35.84
52957;BME280;38819;42.692;23.342;2022-08-05T10:56:17;95239.53;;;28.63;34.55
52957;BME280;38819;42.692;23.342;2022-08-05T10:58:48;95230.47;;;28.59;33.87
52957;BME280;38819;42.692;23.342;2022-08-05T11:01:14;95238.28;;;28.71;33.89
52957;BME280;38819;42.692;23.342;2022-08-05T11:04:03;95230.78;;;28.68;34.73
52957;BME280;38819;42.692;23.342;2022-08-05T11:06:31;95223.63;;;28.71;34.69
52957;BME280;38819;42.692;23.342;2022-08-05T11:09:19;95216.78;;;28.79;34.81
52957;BME280;38819;42.692;23.342;2022-08-05T11:11:46;95220.31;;;28.83;35.20
52957;BME280;38819;42.692;23.342;2022-08-05T11:14:22;95229.75;;;28.93;34.59
52957;BME280;38819;42.692;23.342;2022-08-05T11:19:58;95214.09;;;29.10;34.24
52957;BME280;38819;42.692;23.342;2022-08-05T11:22:45;95206.09;;;29.15;34.17
52957;BME280;38819;42.692;23.342;2022-08-05T11:25:35;95211.19;;;29.24;34.34
52957;BME280;38819;42.692;23.342;2022-08-05T11:33:34;95208.47;;;29.21;33.58
52957;BME280;38819;42.692;23.342;2022-08-05T11:41:39;95207.19;;;29.25;33.08
52957;BME280;38819;42.692;23.342;2022-08-05T11:44:04;95200.41;;;29.30;32.93
52957;BME280;38819;42.692;23.342;2022-08-05T11:46:52;95197.16;;;29.35;33.12
52957;BME280;38819;42.692;23.342;2022-08-05T11:49:20;95189.56;;;29.39;33.99
52957;BME280;38819;42.692;23.342;2022-08-05T11:51:47;95187.53;;;29.43;33.50
52957;BME280;38819;42.692;23.342;2022-08-05T11:54:21;95194.56;;;29.51;32.88
52957;BME280;38819;42.692;23.342;2022-08-05T11:56:53;95187.66;;;29.63;33.33
52957;BME280;38819;42.692;23.342;2022-08-05T11:59:25;95184.47;;;29.65;33.27
52957;BME280;38819;42.692;23.342;2022-08-05T12:02:04;95186.31;;;29.75;32.74
52957;BME280;38819;42.692;23.342;2022-08-05T12:04:44;95181.13;;;29.81;33.51
52957;BME280;38819;42.692;23.342;2022-08-05T12:07:16;95178.59;;;29.90;33.46
52957;BME280;38819;42.692;23.342;2022-08-05T12:09:51;95182.91;;;29.95;33.25
52957;BME280;38819;42.692;23.342;2022-08-05T12:12:21;95177.97;;;30.06;33.23
52957;BME280;38819;42.692;23.342;2022-08-05T12:14:47;95170.28;;;30.14;32.71
52957;BME280;38819;42.692;23.342;2022-08-05T12:17:14;95166.72;;;30.13;32.46
52957;BME280;38819;42.692;23.342;2022-08-05T12:19:44;95174.00;;;30.03;33.22
52957;BME280;38819;42.692;23.342;2022-08-05T12:22:10;95171.03;;;29.90;32.34
52957;BME280;38819;42.692;23.342;2022-08-05T12:24:41;95171.13;;;29.83;32.41
52957;BME280;38819;42.692;23.342;2022-08-05T12:27:07;95173.91;;;29.83;32.37
52957;BME280;38819;42.692;23.342;2022-08-05T12:29:33;95168.19;;;29.94;32.53
52957;BME280;38819;42.692;23.342;2022-08-05T12:31:59;95167.72;;;29.99;32.76
52957;BME280;38819;42.692;23.342;2022-08-05T12:34:30;95166.50;;;30.00;33.03
52957;BME280;38819;42.692;23.342;2022-08-05T12:36:59;95168.09;;;30.01;32.52
52957;BME280;38819;42.692;23.342;2022-08-05T12:39:26;95147.88;;;29.97;33.15
52957;BME280;38819;42.692;23.342;2022-08-05T12:41:57;95156.25;;;29.93;32.76
52957;BME280;38819;42.692;23.342;2022-08-05T12:44:24;95159.28;;;29.75;32.76
52957;BME280;38819;42.692;23.342;2022-08-05T12:46:54;95154.78;;;29.54;32.91
52957;BME280;38819;42.692;23.342;2022-08-05T12:49:20;95157.53;;;29.58;33.42
52957;BME280;38819;42.692;23.342;2022-08-05T12:51:51;95156.78;;;29.54;33.33
52957;BME280;38819;42.692;23.342;2022-08-05T12:54:22;95148.03;;;29.55;33.11
52957;BME280;38819;42.692;23.342;2022-08-05T12:56:50;95145.19;;;29.59;33.58
52957;BME280;38819;42.692;23.342;2022-08-05T12:59:23;95142.66;;;29.68;33.07
52957;BME280;38819;42.692;23.342;2022-08-05T13:04:27;95140.22;;;29.74;32.42
52957;BME280;38819;42.692;23.342;2022-08-05T13:06:55;95138.56;;;29.80;32.64
52957;BME280;38819;42.692;23.342;2022-08-05T13:09:21;95129.06;;;29.78;31.43
52957;BME280;38819;42.692;23.342;2022-08-05T13:11:47;95127.38;;;29.84;31.22
52957;BME280;38819;42.692;23.342;2022-08-05T13:19:15;95124.38;;;29.98;31.17
52957;BME280;38819;42.692;23.342;2022-08-05T13:21:40;95120.75;;;30.01;31.11
52957;BME280;38819;42.692;23.342;2022-08-05T13:24:06;95118.25;;;30.07;30.96
52957;BME280;38819;42.692;23.342;2022-08-05T13:26:32;95119.50;;;30.06;31.17
52957;BME280;38819;42.692;23.342;2022-08-05T13:28:58;95118.31;;;30.03;31.17
52957;BME280;38819;42.692;23.342;2022-08-05T13:31:23;95112.75;;;30.03;31.03
52957;BME280;38819;42.692;23.342;2022-08-05T13:33:49;95124.94;;;30.13;31.66
52957;BME280;38819;42.692;23.342;2022-08-05T13:36:14;95112.97;;;30.16;31.38
52957;BME280;38819;42.692;23.342;2022-08-05T13:38:39;95116.84;;;30.22;31.26
52957;BME280;38819;42.692;23.342;2022-08-05T13:41:05;95113.25;;;30.22;31.40
52957;BME280;38819;42.692;23.342;2022-08-05T13:43:30;95124.31;;;30.25;31.49